Kezdőlap
METAR-TAF:

METAR-TAF

Repülőterek :

Hutchinson County Airport

Borger, Texas, Amerikai Egyesült Államok

földrajzi szélesség: 35-41-42N, földrajzi hosszúság: 101-23-42W, magasság: 931 m

Jelenlegi meteorológiai megfigyelések

A jelentés 1 órával és 1 perccel ezelõtt készült, 14:51 UTC
Dél-délnyugati szél 21 kt széllökések: 34 kt
Hőmérséklet 27°C
Páratartalom 66%
Légköri nyomás 1007 hPa
Látótávolság: 16.1 km
Derült ég

METAR: KBGD 181451Z AUTO 20021G34KT 10SM CLR 27/20 A2975 RMK AO2 PK WND 19039/1428 SLP024 T02720200 51014

Idő: 10:52 (15:52 UTC)


TAF: hiányzik

Meteorológiai megfigyelések és előrejelzések több, mint 4000 repülőtéren (METAR és TAF jelentéseket).

A térképen piros és sárga pontok jelzik az elérhető meteorológiai állomásokat.

Mozgassa az egeret a pont fölött, hogy megjelenjen az állomás neve.

Azután kattintson az időjárási megfigyelések és előrejelzések megtekintéséhez.

A térkép megváltoztatása: kattintson a fekete keresztel jelölt zöld gombra ráközelítéshez, a vonallal jelölt zöld gombra távolításhoz, vagy a zöld nyilakra a szomszédos térképek eléréséhez.


METAR-TAF: